Time;durP1;ratioP1;P1;durP2;ratioP2;P2;SDS_P1;SDS_P2;PMS_P1;PMS_P2;Temp;Humidity;BMP_temperature;BMP_pressure;BME280_temperature;BME280_humidity;BME280_pressure;Samples;Min_cycle;Max_cycle;Signal;HPM_P1;HPM_P2
2022/10/01 00:00:33;;;;;;;10.20;1.90;;;15.20;99.90;;;;;;5013546;28;20057;-43
2022/10/01 00:02:59;;;;;;;7.43;1.90;;;15.20;99.90;;;;;;5013418;28;20406;-46
2022/10/01 00:05:25;;;;;;;7.50;1.90;;;15.20;99.90;;;;;;5013224;28;20034;-43
2022/10/01 00:07:50;;;;;;;8.82;1.67;;;15.20;99.90;;;;;;5012984;28;20113;-43
2022/10/01 00:10:16;;;;;;;6.63;1.77;;;15.20;99.90;;;;;;5001756;28;20447;-45
2022/10/01 00:12:45;;;;;;;9.55;1.75;;;15.20;99.90;;;;;;5008290;28;20389;-43
2022/10/01 00:15:12;;;;;;;7.65;1.88;;;15.20;99.90;;;;;;5013326;28;20032;-43
2022/10/01 00:17:38;;;;;;;6.47;1.60;;;15.10;99.90;;;;;;5013354;28;20026;-44
2022/10/01 00:20:05;;;;;;;9.43;1.52;;;15.10;99.90;;;;;;5013157;28;20029;-43
2022/10/01 00:22:32;;;;;;;6.18;1.40;;;15.10;99.90;;;;;;5013316;28;20108;-45
2022/10/01 00:24:58;;;;;;;7.70;1.80;;;15.10;99.90;;;;;;5013035;28;20752;-45
2022/10/01 00:27:25;;;;;;;4.72;1.42;;;15.10;99.90;;;;;;5013286;28;20117;-47
2022/10/01 00:29:50;;;;;;;8.27;1.65;;;15.10;99.90;;;;;;5012864;28;20405;-48
2022/10/01 00:32:16;;;;;;;8.05;1.52;;;15.10;99.90;;;;;;4995497;28;20022;-48
2022/10/01 00:34:42;;;;;;;10.60;1.52;;;15.10;99.90;;;;;;5012845;28;20030;-44
2022/10/01 00:37:09;;;;;;;5.40;1.30;;;15.10;99.90;;;;;;5002757;28;20025;-51
2022/10/01 00:39:35;;;;;;;6.28;1.45;;;15.00;99.90;;;;;;5005085;28;20108;-49
2022/10/01 00:42:01;;;;;;;4.28;1.10;;;15.00;99.90;;;;;;5012709;28;20108;-44
2022/10/01 00:44:34;;;;;;;7.80;1.42;;;14.90;99.90;;;;;;4995543;28;20500;-51
2022/10/01 00:47:38;;;;;;;7.28;1.38;;;14.90;99.90;;;;;;5012722;28;20027;-47
2022/10/01 00:50:08;;;;;;;5.82;1.20;;;14.90;99.90;;;;;;5012830;28;20033;-44
2022/10/01 00:52:38;;;;;;;7.22;1.52;;;14.90;99.90;;;;;;5002270;28;20695;-49
2022/10/01 00:55:10;;;;;;;3.38;1.40;;;14.80;99.90;;;;;;4995227;28;20037;-45
2022/10/01 00:57:37;;;;;;;9.70;1.35;;;14.80;99.90;;;;;;5012309;28;20044;-45
2022/10/01 01:00:05;;;;;;;11.27;1.55;;;14.70;99.90;;;;;;5012511;28;20026;-49
2022/10/01 01:02:31;;;;;;;8.90;1.40;;;14.70;99.90;;;;;;5012015;28;20501;-49
2022/10/01 01:04:58;;;;;;;5.25;1.42;;;14.70;99.90;;;;;;5012496;28;20036;-47
2022/10/01 01:07:24;;;;;;;7.15;1.35;;;14.70;99.90;;;;;;5012254;28;20026;-50
2022/10/01 01:09:52;;;;;;;5.03;1.33;;;14.70;99.90;;;;;;5012285;28;20092;-44
2022/10/01 01:12:21;;;;;;;5.88;1.05;;;14.60;99.90;;;;;;5012172;28;20034;-49
2022/10/01 01:14:58;;;;;;;9.63;1.55;;;14.70;99.90;;;;;;5012254;28;20018;-46
2022/10/01 01:17:32;;;;;;;8.48;1.67;;;14.70;99.90;;;;;;5012265;28;20018;-45
2022/10/01 01:20:16;;;;;;;6.85;1.20;;;14.60;99.90;;;;;;5012090;28;20022;-49
2022/10/01 01:22:52;;;;;;;11.73;1.63;;;14.60;99.90;;;;;;5007588;28;20121;-48
2022/10/01 01:25:24;;;;;;;10.10;1.80;;;14.50;99.90;;;;;;5012105;28;20507;-44
2022/10/01 01:28:05;;;;;;;6.20;1.20;;;14.50;99.90;;;;;;5011993;28;20109;-45
2022/10/01 01:30:32;;;;;;;6.32;1.30;;;14.50;99.90;;;;;;4987706;28;20021;-52
2022/10/01 01:33:03;;;;;;;8.75;1.58;;;14.50;99.90;;;;;;5011883;28;20030;-48
2022/10/01 01:35:42;;;;;;;7.72;1.40;;;14.50;99.90;;;;;;4985230;28;20033;-48
2022/10/01 01:38:13;;;;;;;7.18;1.60;;;14.40;99.90;;;;;;5008172;28;20104;-52
2022/10/01 01:40:41;;;;;;;9.85;1.67;;;14.40;99.90;;;;;;5011824;28;20076;-48
2022/10/01 01:43:12;;;;;;;10.13;1.45;;;14.40;99.90;;;;;;5011762;28;20038;-43
2022/10/01 01:45:40;;;;;;;13.88;1.98;;;14.40;99.90;;;;;;5011654;28;20036;-44
2022/10/01 01:48:08;;;;;;;7.05;1.90;;;14.30;99.90;;;;;;5011936;28;20026;-48
2022/10/01 01:50:43;;;;;;;9.27;1.80;;;14.40;99.90;;;;;;5011462;28;20499;-43
2022/10/01 01:53:10;;;;;;;13.88;2.05;;;14.30;99.90;;;;;;4995628;28;20480;-45
2022/10/01 01:55:36;;;;;;;10.75;1.88;;;14.30;99.90;;;;;;4999288;28;20030;-46
2022/10/01 01:58:02;;;;;;;13.65;2.20;;;14.30;99.90;;;;;;5011432;28;20050;-46
2022/10/01 02:00:28;;;;;;;11.75;1.90;;;14.30;99.90;;;;;;5011440;28;20492;-45
2022/10/01 02:02:55;;;;;;;12.73;1.88;;;14.30;99.90;;;;;;5011426;28;20409;-45
2022/10/01 02:05:26;;;;;;;12.43;1.85;;;14.30;99.90;;;;;;5010690;28;20447;-48
2022/10/01 02:08:12;;;;;;;12.45;2.20;;;14.30;99.90;;;;;;5011335;28;20491;-45
2022/10/01 02:10:50;;;;;;;10.40;1.88;;;14.20;99.90;;;;;;5011492;28;20018;-46
2022/10/01 02:13:25;;;;;;;13.03;2.23;;;14.30;99.90;;;;;;5011193;28;20048;-46
2022/10/01 02:16:19;;;;;;;17.83;2.85;;;14.30;99.90;;;;;;5011412;28;20029;-48
2022/10/01 02:19:17;;;;;;;13.98;2.15;;;14.20;99.90;;;;;;4989046;28;20041;-48
2022/10/01 02:21:50;;;;;;;10.38;1.52;;;14.20;99.90;;;;;;4993887;28;20113;-45
2022/10/01 02:24:40;;;;;;;15.77;2.55;;;14.10;99.90;;;;;;5011282;28;20485;-44
2022/10/01 02:27:17;;;;;;;11.60;1.80;;;14.10;99.90;;;;;;4986371;28;20025;-45
2022/10/01 02:29:45;;;;;;;13.77;2.35;;;14.00;99.90;;;;;;5011276;28;20030;-51
2022/10/01 02:32:12;;;;;;;12.45;2.45;;;14.00;99.90;;;;;;5011277;28;20021;-52
2022/10/01 02:34:39;;;;;;;18.60;2.13;;;14.00;99.90;;;;;;4993566;28;20510;-47
2022/10/01 02:37:08;;;;;;;13.13;1.80;;;13.90;99.90;;;;;;5011066;28;20022;-48
2022/10/01 02:39:36;;;;;;;14.55;2.00;;;14.00;99.90;;;;;;4992080;28;20089;-45
2022/10/01 02:42:02;;;;;;;12.02;2.33;;;13.90;99.90;;;;;;5009213;28;20068;-48
2022/10/01 02:44:39;;;;;;;12.18;2.67;;;13.90;99.90;;;;;;5011250;28;20284;-45
2022/10/01 02:47:22;;;;;;;12.15;1.77;;;13.90;99.90;;;;;;5010794;28;20485;-51
2022/10/01 02:49:49;;;;;;;10.82;1.88;;;13.90;99.90;;;;;;5011066;28;20030;-43
2022/10/01 02:52:39;;;;;;;11.55;2.42;;;13.80;99.90;;;;;;5001550;28;20515;-48
2022/10/01 02:55:10;;;;;;;;;;;13.80;99.90;;;;;;4997055;28;20023;-43
2022/10/01 02:57:36;;;;;;;12.68;2.22;;;13.80;99.90;;;;;;4983060;28;20337;-46
2022/10/01 03:00:07;;;;;;;11.75;2.03;;;13.80;99.90;;;;;;4990897;28;20029;-47
2022/10/01 03:02:32;;;;;;;11.02;1.63;;;13.70;99.90;;;;;;4991107;28;20030;-44
2022/10/01 03:04:58;;;;;;;12.30;1.80;;;13.70;99.90;;;;;;4991197;28;20703;-46
2022/10/01 03:07:26;;;;;;;16.35;1.90;;;13.70;99.90;;;;;;4991254;28;20038;-44
2022/10/01 03:09:53;;;;;;;10.30;2.03;;;13.70;99.90;;;;;;4991105;28;20034;-44
2022/10/01 03:12:19;;;;;;;9.93;2.00;;;13.70;99.90;;;;;;4991120;28;20030;-44
2022/10/01 03:14:45;;;;;;;10.38;1.80;;;13.70;99.90;;;;;;4990908;28;20386;-46
2022/10/01 03:17:11;;;;;;;11.52;2.13;;;13.60;99.90;;;;;;4994176;28;20023;-51
2022/10/01 03:19:37;;;;;;;11.52;1.85;;;13.60;99.90;;;;;;4994680;28;20026;-43
2022/10/01 03:22:03;;;;;;;15.00;3.17;;;13.60;99.90;;;;;;4994593;28;20027;-51
2022/10/01 03:24:29;;;;;;;14.38;3.38;;;13.60;99.90;;;;;;4994712;28;20516;-45
2022/10/01 03:26:58;;;;;;;10.65;2.10;;;13.60;99.90;;;;;;4994577;28;20030;-44
2022/10/01 03:29:24;;;;;;;17.30;2.72;;;13.60;99.90;;;;;;4994620;28;20022;-44
2022/10/01 03:31:50;;;;;;;10.93;1.92;;;13.60;99.90;;;;;;4994280;28;20042;-44
2022/10/01 03:34:17;;;;;;;11.80;1.95;;;13.60;99.90;;;;;;4977021;28;20029;-44
2022/10/01 03:36:42;;;;;;;16.35;2.30;;;13.60;99.90;;;;;;4994291;28;20034;-48
2022/10/01 03:39:08;;;;;;;14.27;2.03;;;13.60;99.90;;;;;;4993992;28;20401;-48
2022/10/01 03:41:34;;;;;;;10.88;1.60;;;13.50;99.90;;;;;;4994398;28;20046;-49
2022/10/01 03:43:59;;;;;;;15.57;2.03;;;13.50;99.90;;;;;;4994320;28;20114;-49
2022/10/01 03:46:25;;;;;;;13.00;1.98;;;13.50;99.90;;;;;;4994279;28;20022;-53
2022/10/01 03:48:51;;;;;;;13.68;2.40;;;13.50;99.90;;;;;;4994225;28;20034;-47
2022/10/01 03:51:19;;;;;;;11.25;1.77;;;13.50;99.90;;;;;;4993993;28;20034;-44
2022/10/01 03:53:46;;;;;;;15.77;1.73;;;13.40;99.90;;;;;;4994293;28;20469;-47
2022/10/01 03:56:12;;;;;;;12.90;1.98;;;13.30;99.90;;;;;;4994155;28;20040;-44
2022/10/01 03:58:38;;;;;;;16.42;2.33;;;13.30;99.90;;;;;;4993739;28;20050;-44
2022/10/01 04:01:04;;;;;;;10.70;1.85;;;13.30;99.90;;;;;;4994030;28;20491;-48
2022/10/01 04:03:29;;;;;;;13.23;2.15;;;13.30;99.90;;;;;;4994250;28;20046;-46
2022/10/01 04:05:55;;;;;;;11.88;2.03;;;13.40;99.90;;;;;;4994289;28;20026;-47
2022/10/01 04:08:20;;;;;;;16.05;2.88;;;13.40;99.90;;;;;;4993899;28;20034;-48
2022/10/01 04:10:47;;;;;;;14.35;2.25;;;13.40;99.90;;;;;;4993885;28;20022;-45
2022/10/01 04:13:14;;;;;;;14.23;2.17;;;13.30;99.90;;;;;;4993732;28;20169;-46
2022/10/01 04:15:40;;;;;;;14.82;2.70;;;13.30;99.90;;;;;;4976310;28;20018;-50
2022/10/01 04:18:07;;;;;;;13.50;1.83;;;13.30;99.90;;;;;;4993714;28;20492;-49
2022/10/01 04:20:34;;;;;;;10.18;2.00;;;13.20;99.90;;;;;;4993562;28;20111;-44
2022/10/01 04:23:00;;;;;;;9.45;1.98;;;13.20;99.90;;;;;;4993523;28;20124;-45
2022/10/01 04:25:27;;;;;;;14.73;2.20;;;13.10;99.90;;;;;;4993717;28;20057;-51
2022/10/01 04:27:55;;;;;;;12.15;2.10;;;13.10;99.90;;;;;;4992909;28;20034;-46
2022/10/01 04:30:21;;;;;;;11.88;2.10;;;13.20;99.90;;;;;;4993643;28;20480;-45
2022/10/01 04:32:47;;;;;;;9.18;1.40;;;13.10;99.90;;;;;;4993432;28;20485;-46
2022/10/01 04:35:13;;;;;;;10.27;2.05;;;13.10;99.90;;;;;;4993340;28;20111;-45
2022/10/01 04:37:38;;;;;;;13.18;2.22;;;13.10;99.90;;;;;;4993239;28;20034;-44
2022/10/01 04:40:05;;;;;;;10.55;1.88;;;13.10;99.90;;;;;;4993212;28;20094;-45
2022/10/01 04:42:31;;;;;;;21.50;2.33;;;13.10;99.90;;;;;;4993080;28;20045;-44
2022/10/01 04:44:56;;;;;;;13.00;2.30;;;13.00;99.90;;;;;;4993204;28;20034;-48
2022/10/01 04:47:22;;;;;;;11.50;2.10;;;13.00;99.90;;;;;;4993177;28;20477;-44
2022/10/01 04:49:48;;;;;;;16.00;2.10;;;13.00;99.90;;;;;;4993150;28;20394;-45
2022/10/01 04:52:14;;;;;;;10.30;2.05;;;12.90;99.90;;;;;;4992636;28;20029;-51
2022/10/01 04:54:39;;;;;;;13.60;2.70;;;12.90;99.90;;;;;;4993099;28;20030;-47
2022/10/01 04:57:05;;;;;;;13.05;2.63;;;12.90;99.90;;;;;;4992611;28;20421;-45
2022/10/01 04:59:31;;;;;;;16.95;2.83;;;12.80;99.90;;;;;;4992963;28;20529;-46
2022/10/01 05:01:57;;;;;;;10.90;2.15;;;12.80;99.90;;;;;;4992782;28;20057;-47
2022/10/01 05:04:23;;;;;;;12.73;2.33;;;12.80;99.90;;;;;;4992747;28;20486;-47
2022/10/01 05:06:48;;;;;;;11.68;2.35;;;12.70;99.90;;;;;;4992950;28;20026;-47
2022/10/01 05:09:14;;;;;;;18.20;2.78;;;12.70;99.90;;;;;;4992680;28;20391;-46
2022/10/01 05:11:40;;;;;;;15.57;2.47;;;12.80;99.90;;;;;;4992721;28;20022;-45
2022/10/01 05:14:05;;;;;;;16.77;2.58;;;12.80;99.90;;;;;;4992753;28;20029;-46
2022/10/01 05:16:31;;;;;;;16.45;3.03;;;12.70;99.90;;;;;;4992332;28;20486;-45
2022/10/01 05:18:57;;;;;;;16.73;2.00;;;12.70;99.90;;;;;;4992520;28;20030;-46
2022/10/01 05:21:23;;;;;;;14.30;2.25;;;12.70;99.90;;;;;;4991966;28;20504;-50
2022/10/01 05:23:49;;;;;;;16.20;2.45;;;12.70;99.90;;;;;;4992465;28;20042;-46
2022/10/01 05:26:14;;;;;;;9.30;1.88;;;12.70;99.90;;;;;;4992227;28;20067;-48
2022/10/01 05:28:43;;;;;;;10.23;1.48;;;12.70;99.90;;;;;;4974822;28;20125;-45
2022/10/01 05:31:10;;;;;;;12.40;2.10;;;12.70;99.90;;;;;;4992480;28;20030;-47
2022/10/01 05:33:36;;;;;;;11.40;2.72;;;12.60;99.90;;;;;;4992306;28;20026;-45
2022/10/01 05:36:05;;;;;;;14.95;2.40;;;12.60;99.90;;;;;;4992440;28;20062;-51
2022/10/01 05:38:36;;;;;;;11.90;2.53;;;12.50;99.90;;;;;;4991958;28;20026;-46
2022/10/01 05:41:02;;;;;;;10.65;2.55;;;12.50;99.90;;;;;;4991678;28;20061;-45
2022/10/01 05:43:29;;;;;;;15.48;2.05;;;12.50;99.90;;;;;;4992255;28;20050;-49
2022/10/01 05:45:58;;;;;;;22.27;2.50;;;12.50;99.90;;;;;;4991933;28;20489;-47
2022/10/01 05:48:23;;;;;;;17.00;2.83;;;12.50;99.90;;;;;;4992037;28;20035;-45
2022/10/01 05:50:49;;;;;;;10.80;1.95;;;12.40;99.90;;;;;;4991353;28;20108;-48
2022/10/01 05:53:15;;;;;;;10.82;2.10;;;12.30;99.90;;;;;;4974557;28;20038;-47
2022/10/01 05:55:40;;;;;;;14.18;2.15;;;12.30;99.90;;;;;;4990896;28;20465;-47
2022/10/01 05:58:11;;;;;;;10.73;2.30;;;12.30;99.90;;;;;;4985026;28;20172;-53
2022/10/01 06:00:38;;;;;;;14.10;2.78;;;12.30;99.90;;;;;;4989708;28;20041;-47
2022/10/01 06:03:05;;;;;;;12.00;2.13;;;12.30;99.90;;;;;;4991595;28;20088;-47
2022/10/01 06:05:33;;;;;;;10.85;2.42;;;12.20;99.90;;;;;;4989398;28;20021;-46
2022/10/01 06:07:59;;;;;;;13.68;2.10;;;12.20;99.90;;;;;;4991059;28;20030;-47
2022/10/01 06:10:29;;;;;;;9.98;1.88;;;12.20;99.90;;;;;;4973802;28;20444;-49
2022/10/01 06:13:00;;;;;;;8.90;2.15;;;12.20;99.90;;;;;;4991343;28;20022;-45
2022/10/01 06:15:28;;;;;;;9.63;2.35;;;12.20;99.90;;;;;;4980841;28;20034;-47
2022/10/01 06:17:53;;;;;;;14.27;2.55;;;12.20;99.90;;;;;;4989411;28;20019;-49
2022/10/01 06:20:19;;;;;;;15.85;3.20;;;12.20;99.90;;;;;;4988262;28;20048;-53
2022/10/01 06:22:53;;;;;;;22.40;2.65;;;12.20;99.90;;;;;;4983838;28;20042;-48
2022/10/01 06:25:20;;;;;;;15.73;2.22;;;12.30;99.90;;;;;;4991628;28;20111;-47
2022/10/01 06:27:55;;;;;;;15.70;2.20;;;12.40;99.90;;;;;;4991471;28;20030;-49
2022/10/01 06:30:21;;;;;;;19.92;3.47;;;12.50;99.90;;;;;;4990649;28;20024;-49
2022/10/01 06:32:46;;;;;;;14.75;2.42;;;12.60;99.90;;;;;;4988658;28;20022;-55
2022/10/01 06:35:13;;;;;;;15.88;2.15;;;12.80;99.90;;;;;;4991481;28;20030;-45
2022/10/01 06:37:38;;;;;;;16.30;2.42;;;12.90;99.90;;;;;;4974126;28;20034;-46
2022/10/01 06:40:06;;;;;;;13.63;2.40;;;13.00;99.90;;;;;;4987449;28;20030;-52
2022/10/01 06:42:31;;;;;;;18.15;2.92;;;13.20;99.90;;;;;;4985443;28;20038;-52
2022/10/01 06:44:57;;;;;;;22.85;2.92;;;13.30;99.90;;;;;;4991136;28;20038;-48
2022/10/01 06:47:23;;;;;;;16.40;2.80;;;13.40;99.90;;;;;;4991480;28;20054;-48
2022/10/01 06:49:48;;;;;;;14.90;2.72;;;13.40;99.90;;;;;;4991371;28;20038;-48
2022/10/01 06:55:00;;;;;;;21.98;2.88;;;13.50;99.90;;;;;;4993188;28;20508;-46
2022/10/01 06:57:26;;;;;;;15.02;2.17;;;13.50;99.90;;;;;;4994500;28;20149;-46
2022/10/01 06:59:52;;;;;;;16.85;2.15;;;13.60;99.90;;;;;;4994507;28;20038;-50
2022/10/01 07:02:22;;;;;;;13.95;2.17;;;13.70;99.90;;;;;;4994436;28;20045;-50
2022/10/01 07:04:48;;;;;;;15.43;2.40;;;13.80;99.90;;;;;;4982169;28;20026;-48
2022/10/01 07:07:13;;;;;;;12.93;2.30;;;13.90;99.90;;;;;;4992969;28;20359;-52
2022/10/01 07:09:39;;;;;;;18.00;2.65;;;14.00;99.90;;;;;;4991912;28;20086;-50
2022/10/01 07:12:05;;;;;;;19.38;2.75;;;14.00;99.90;;;;;;4988982;28;20034;-49
2022/10/01 07:14:30;;;;;;;15.60;2.88;;;14.10;99.90;;;;;;4986268;28;20034;-46
2022/10/01 07:16:56;;;;;;;20.38;3.53;;;14.30;99.90;;;;;;4993981;28;20362;-50
2022/10/01 07:19:21;;;;;;;20.02;2.35;;;14.40;99.90;;;;;;4993315;28;20023;-52
2022/10/01 07:21:47;;;;;;;11.80;2.28;;;14.50;99.90;;;;;;4993951;28;20108;-46
2022/10/01 07:24:13;;;;;;;15.15;2.63;;;14.70;99.90;;;;;;4994642;28;20417;-46
2022/10/01 07:26:39;;;;;;;15.32;2.22;;;14.80;99.90;;;;;;4975866;28;20026;-47
2022/10/01 07:29:05;;;;;;;13.10;2.38;;;14.70;99.90;;;;;;4994470;28;20458;-46
2022/10/01 07:31:30;;;;;;;12.05;2.20;;;14.70;99.90;;;;;;4992703;28;20392;-46
2022/10/01 07:33:59;;;;;;;12.75;2.30;;;14.60;99.90;;;;;;4992581;28;20106;-46
2022/10/01 07:36:25;;;;;;;14.50;2.17;;;14.60;99.90;;;;;;4992839;28;20030;-49
2022/10/01 07:38:51;;;;;;;12.23;1.98;;;14.60;99.90;;;;;;4992600;28;20268;-50
2022/10/01 07:41:16;;;;;;;16.20;2.63;;;14.70;99.90;;;;;;4992494;28;20018;-49
2022/10/01 07:43:45;;;;;;;15.25;2.05;;;14.80;99.90;;;;;;4992130;28;20066;-46
2022/10/01 07:46:11;;;;;;;16.50;1.97;;;14.80;99.90;;;;;;4993303;28;20469;-49
2022/10/01 07:48:36;;;;;;;14.57;2.17;;;14.90;99.90;;;;;;4994123;28;20029;-50
2022/10/01 07:51:02;;;;;;;13.02;2.67;;;15.20;99.90;;;;;;4993800;28;20026;-52
2022/10/01 07:53:28;;;;;;;12.55;1.77;;;15.50;99.90;;;;;;4993905;28;20440;-48
2022/10/01 07:55:54;;;;;;;17.20;2.88;;;16.00;99.90;;;;;;4969580;28;20038;-49
2022/10/01 07:58:22;;;;;;;9.15;1.90;;;16.70;99.90;;;;;;4993167;28;20043;-51
2022/10/01 08:00:48;;;;;;;11.88;2.28;;;17.60;99.90;;;;;;4993968;28;20049;-51
2022/10/01 08:03:14;;;;;;;16.20;2.05;;;18.50;99.90;;;;;;4992850;28;20157;-50
2022/10/01 08:05:41;;;;;;;9.52;1.80;;;19.20;99.90;;;;;;4994125;28;20109;-48
2022/10/01 08:08:07;;;;;;;12.68;2.05;;;19.80;99.90;;;;;;4993691;28;20474;-51
2022/10/01 08:10:35;;;;;;;13.57;2.03;;;20.50;99.90;;;;;;4993757;28;20034;-49
2022/10/01 08:13:07;;;;;;;9.48;1.60;;;20.90;99.90;;;;;;4993580;28;20093;-46
2022/10/01 08:15:33;;;;;;;13.65;2.55;;;20.90;99.90;;;;;;4993961;28;20033;-48
2022/10/01 08:18:03;;;;;;;10.95;1.85;;;21.20;99.90;;;;;;4993546;28;20029;-46
2022/10/01 08:20:29;;;;;;;12.43;2.30;;;20.90;99.90;;;;;;4993454;28;20505;-46
2022/10/01 08:23:04;;;;;;;13.13;1.83;;;20.90;99.90;;;;;;4993382;28;20042;-48
2022/10/01 08:25:30;;;;;;;12.57;2.25;;;21.30;99.90;;;;;;4993567;28;20022;-46
2022/10/01 08:27:55;;;;;;;10.13;2.58;;;21.60;99.90;;;;;;4993683;28;20551;-48
2022/10/01 08:30:21;;;;;;;14.82;2.58;;;21.40;99.90;;;;;;4993752;28;20026;-46
2022/10/01 08:32:47;;;;;;;10.98;2.38;;;21.20;99.90;;;;;;4993345;28;20081;-47
2022/10/01 08:35:12;;;;;;;9.68;2.13;;;21.60;99.90;;;;;;4993426;28;20038;-47
2022/10/01 08:37:38;;;;;;;11.18;1.83;;;21.50;99.90;;;;;;4975945;28;20049;-50
2022/10/01 08:40:04;;;;;;;12.93;2.10;;;21.40;99.90;;;;;;4975668;28;20409;-47
2022/10/01 08:42:36;;;;;;;12.70;2.50;;;21.00;99.90;;;;;;4993408;28;20037;-50
2022/10/01 08:45:10;;;;;;;11.63;2.05;;;21.20;99.90;;;;;;4993070;28;20031;-47
2022/10/01 08:47:44;;;;;;;14.65;2.00;;;21.20;99.90;;;;;;4993355;28;20073;-48
2022/10/01 08:50:34;;;;;;;16.67;2.58;;;21.80;99.90;;;;;;4992823;28;20030;-50
2022/10/01 08:53:05;;;;;;;9.32;1.92;;;21.80;99.90;;;;;;4992750;28;20026;-48
2022/10/01 08:55:36;;;;;;;11.95;2.00;;;22.20;99.90;;;;;;4992995;28;20030;-46
2022/10/01 08:58:04;;;;;;;14.13;2.33;;;22.40;99.90;;;;;;4992845;28;20057;-48
2022/10/01 09:00:32;;;;;;;12.88;2.25;;;22.80;99.90;;;;;;4992910;28;20179;-49
2022/10/01 09:03:03;;;;;;;12.65;2.42;;;22.50;99.90;;;;;;4992624;28;20096;-46
2022/10/01 09:06:00;;;;;;;14.00;2.05;;;22.60;99.90;;;;;;4993168;28;20058;-46
2022/10/01 09:09:03;;;;;;;10.38;2.00;;;22.90;99.90;;;;;;4981425;28;20019;-46
2022/10/01 09:12:04;;;;;;;11.85;2.25;;;22.90;99.90;;;;;;4992592;28;20090;-49
2022/10/01 09:14:54;;;;;;;11.15;2.45;;;22.90;99.90;;;;;;4977442;28;20034;-47
2022/10/01 09:17:32;;;;;;;11.35;2.03;;;22.90;99.90;;;;;;4975240;28;20458;-47
2022/10/01 09:20:04;;;;;;;10.52;1.85;;;21.90;99.90;;;;;;4992309;28;20029;-48
2022/10/01 09:22:43;;;;;;;13.77;2.47;;;21.00;99.90;;;;;;4992532;28;20038;-49
2022/10/01 09:25:26;;;;;;;14.02;2.00;;;20.40;99.90;;;;;;4979064;28;20029;-46
2022/10/01 09:28:01;;;;;;;12.55;2.40;;;20.70;99.90;;;;;;4992249;28;20037;-48
2022/10/01 09:30:29;;;;;;;9.75;1.75;;;20.90;99.90;;;;;;4992447;28;20014;-49
2022/10/01 09:33:10;;;;;;;12.85;2.08;;;21.90;99.90;;;;;;4992321;28;20031;-51
2022/10/01 09:35:47;;;;;;;8.65;1.92;;;23.00;99.90;;;;;;4980746;28;20038;-46
2022/10/01 09:38:35;;;;;;;16.15;2.40;;;23.60;99.90;;;;;;4992085;28;20034;-50
2022/10/01 09:41:01;;;;;;;10.15;2.00;;;24.30;99.90;;;;;;4992157;28;20494;-51
2022/10/01 09:43:29;;;;;;;12.50;2.28;;;25.10;98.50;;;;;;4992002;28;20077;-49
2022/10/01 09:45:56;;;;;;;11.15;2.13;;;26.10;98.30;;;;;;4992274;28;20022;-45
2022/10/01 09:48:38;;;;;;;11.20;2.03;;;26.10;95.20;;;;;;4991970;28;20030;-53
2022/10/01 09:51:21;;;;;;;10.68;1.98;;;25.20;95.00;;;;;;4991749;28;20026;-45
2022/10/01 09:54:04;;;;;;;11.52;2.72;;;25.00;98.30;;;;;;4992055;28;20022;-55
2022/10/01 09:56:43;;;;;;;7.05;1.70;;;26.20;95.90;;;;;;4992134;28;20040;-51
2022/10/01 09:59:18;;;;;;;9.00;2.10;;;26.20;95.20;;;;;;4991624;28;20030;-53
2022/10/01 10:01:48;;;;;;;9.30;2.08;;;26.60;92.60;;;;;;4991922;28;20080;-51
2022/10/01 10:04:20;;;;;;;9.90;2.05;;;26.00;93.80;;;;;;4991490;28;20030;-50
2022/10/01 10:06:46;;;;;;;11.30;2.33;;;26.50;94.50;;;;;;4991819;28;20099;-57
2022/10/01 10:09:17;;;;;;;12.43;2.38;;;26.40;92.60;;;;;;4991844;28;20085;-47
2022/10/01 10:11:44;;;;;;;9.02;2.13;;;25.50;91.40;;;;;;4991646;28;20034;-50
2022/10/01 10:14:36;;;;;;;9.77;2.28;;;24.80;92.30;;;;;;4991829;28;20046;-51
2022/10/01 10:17:11;;;;;;;10.18;2.38;;;24.20;96.50;;;;;;4981319;28;20034;-50
2022/10/01 10:19:37;;;;;;;9.48;2.30;;;24.90;94.50;;;;;;4991363;28;20107;-53
2022/10/01 10:22:22;;;;;;;16.35;2.35;;;24.90;93.00;;;;;;4991306;28;20482;-54
2022/10/01 10:24:48;;;;;;;10.20;1.98;;;24.10;93.10;;;;;;4991269;28;20038;-48
2022/10/01 10:27:32;;;;;;;8.77;2.08;;;24.60;94.70;;;;;;4991454;28;20110;-52
2022/10/01 10:30:05;;;;;;;13.73;2.03;;;25.50;93.00;;;;;;4991638;28;20018;-45
2022/10/01 10:32:31;;;;;;;13.20;2.53;;;25.20;93.00;;;;;;4991523;28;20034;-47
2022/10/01 10:35:03;;;;;;;9.15;1.95;;;26.30;90.70;;;;;;4991521;28;20033;-48
2022/10/01 10:37:33;;;;;;;8.15;2.00;;;26.10;91.10;;;;;;4991720;28;20022;-48
2022/10/01 10:39:59;;;;;;;9.23;2.35;;;25.20;93.20;;;;;;4973911;28;20031;-45
2022/10/01 10:42:25;;;;;;;11.30;2.30;;;25.20;92.50;;;;;;4991232;28;20085;-47
2022/10/01 10:44:53;;;;;;;12.20;2.00;;;25.20;92.00;;;;;;4991294;28;20035;-49
2022/10/01 10:47:20;;;;;;;13.43;2.23;;;24.30;92.80;;;;;;4991555;28;20473;-45
2022/10/01 10:49:51;;;;;;;7.75;1.52;;;24.20;92.40;;;;;;4991183;28;20033;-45
2022/10/01 10:52:28;;;;;;;10.02;2.10;;;23.30;93.70;;;;;;4991203;28;20097;-54
2022/10/01 10:54:55;;;;;;;9.48;1.83;;;23.10;93.60;;;;;;4991364;28;20030;-51
2022/10/01 10:57:33;;;;;;;7.97;2.05;;;22.00;94.70;;;;;;4991081;28;20053;-48
2022/10/01 11:00:01;;;;;;;11.23;2.20;;;21.80;96.00;;;;;;4991428;28;20041;-47
2022/10/01 11:02:29;;;;;;;8.57;2.15;;;22.30;97.00;;;;;;4991062;28;20035;-45
2022/10/01 11:05:00;;;;;;;11.00;2.72;;;23.60;97.00;;;;;;4988636;28;20030;-47
2022/10/01 11:07:27;;;;;;;13.68;2.25;;;24.20;93.20;;;;;;4986841;28;20166;-46
2022/10/01 11:10:37;;;;;;;10.77;2.33;;;24.70;93.20;;;;;;4991287;28;20030;-47
2022/10/01 11:13:27;;;;;;;13.18;2.40;;;24.10;93.20;;;;;;4984541;28;20023;-46
2022/10/01 11:15:59;;;;;;;12.20;2.17;;;23.20;94.10;;;;;;4989046;28;20057;-49
2022/10/01 11:18:25;;;;;;;12.85;1.83;;;23.10;93.80;;;;;;4989060;28;20101;-45
2022/10/01 11:21:18;;;;;;;10.32;2.00;;;23.20;93.70;;;;;;4990688;28;20385;-44
2022/10/01 11:24:04;;;;;;;11.20;1.80;;;23.50;94.90;;;;;;4978644;28;20101;-46
2022/10/01 11:26:45;;;;;;;10.07;2.15;;;24.30;93.20;;;;;;4987453;28;20027;-46
2022/10/01 11:29:22;;;;;;;10.60;1.88;;;24.60;93.00;;;;;;4990978;28;20043;-49
2022/10/01 11:31:48;;;;;;;10.32;1.90;;;25.10;94.40;;;;;;4990994;28;20085;-49
2022/10/01 11:34:31;;;;;;;10.23;2.20;;;25.10;91.70;;;;;;4990213;28;20118;-48
2022/10/01 11:37:14;;;;;;;11.02;2.30;;;24.60;92.30;;;;;;4989632;28;20022;-48
2022/10/01 11:39:42;;;;;;;11.32;1.80;;;23.90;90.80;;;;;;4992943;28;20568;-49
2022/10/01 11:42:17;;;;;;;7.03;2.83;;;22.90;94.00;;;;;;4993592;28;20088;-45
2022/10/01 11:44:56;;;;;;;8.65;2.03;;;22.00;94.00;;;;;;4993778;28;20555;-46
2022/10/01 11:47:32;;;;;;;11.60;2.17;;;21.40;96.60;;;;;;4990625;28;20381;-46
2022/10/01 11:50:04;;;;;;;7.35;1.55;;;20.90;98.70;;;;;;4991048;28;20039;-51
2022/10/01 11:52:41;;;;;;;11.30;2.25;;;21.10;97.60;;;;;;4993392;28;20033;-52
2022/10/01 12:01:25;;;;;;;11.40;1.85;;;22.70;96.70;;;;;;4993235;28;20093;-49
2022/10/01 12:03:51;;;;;;;11.85;1.92;;;23.10;94.10;;;;;;4993120;28;20042;-45
2022/10/01 12:06:19;;;;;;;10.55;1.67;;;22.40;94.30;;;;;;4993033;28;20101;-47
2022/10/01 12:08:53;;;;;;;11.50;2.08;;;21.80;95.60;;;;;;4993460;28;20038;-53
2022/10/01 12:11:33;;;;;;;9.90;1.98;;;21.60;95.30;;;;;;4993254;28;20117;-45
2022/10/01 12:14:13;;;;;;;10.50;1.90;;;22.00;97.50;;;;;;4993864;28;20473;-50
2022/10/01 12:17:11;;;;;;;11.50;2.17;;;22.70;95.60;;;;;;4994194;28;20036;-51
2022/10/01 12:19:40;;;;;;;10.15;1.83;;;23.10;94.80;;;;;;4976210;28;20030;-48
2022/10/01 12:22:24;;;;;;;6.03;1.30;;;23.30;93.90;;;;;;4993420;28;20033;-49
2022/10/01 12:24:50;;;;;;;12.52;2.30;;;23.40;93.80;;;;;;4993439;28;20533;-50
2022/10/01 12:27:40;;;;;;;10.50;1.95;;;23.30;94.60;;;;;;4993548;28;20066;-50
2022/10/01 12:30:19;;;;;;;12.80;2.25;;;23.50;93.10;;;;;;4992548;28;20068;-47
2022/10/01 12:33:06;;;;;;;8.75;1.98;;;23.60;93.90;;;;;;4993463;28;20069;-46
2022/10/01 12:36:11;;;;;;;9.38;1.52;;;23.60;93.20;;;;;;4993466;28;20035;-45
2022/10/01 12:38:59;;;;;;;13.48;1.90;;;23.50;93.00;;;;;;4992461;28;20037;-46
2022/10/01 12:41:44;;;;;;;11.43;1.77;;;23.60;92.60;;;;;;4993052;28;20104;-48
2022/10/01 12:44:35;;;;;;;7.65;1.92;;;23.50;93.70;;;;;;4992991;28;20050;-46
2022/10/01 12:47:23;;;;;;;11.25;1.92;;;23.00;95.00;;;;;;4991152;28;20125;-46
2022/10/01 12:50:03;;;;;;;10.25;1.88;;;23.10;95.00;;;;;;4992388;28;20513;-52
2022/10/01 12:52:43;;;;;;;9.80;2.42;;;23.10;93.40;;;;;;4993401;28;20034;-47
2022/10/01 12:55:11;;;;;;;9.43;2.10;;;23.20;93.40;;;;;;4992769;28;20024;-47
2022/10/01 12:57:49;;;;;;;11.18;2.47;;;22.80;93.40;;;;;;4993049;28;20054;-51
2022/10/01 13:00:23;;;;;;;12.32;2.70;;;23.10;95.40;;;;;;4992582;28;20062;-49
2022/10/01 13:02:49;;;;;;;10.38;2.40;;;23.60;94.80;;;;;;4992806;28;20049;-53
2022/10/01 13:05:36;;;;;;;11.35;2.25;;;23.90;94.20;;;;;;4992860;28;20109;-47
2022/10/01 13:08:27;;;;;;;10.20;1.98;;;23.60;92.30;;;;;;4975031;28;20397;-50